sensor_id;sensor_type;location;lat;lon;timestamp;pressure;altitude;pressure_sealevel;temperature;humidity
46506;BME280;32220;49.808;9.968;2023-04-05T00:00:38;99608.91;;;1.64;51.78
46506;BME280;32220;49.808;9.968;2023-04-05T00:03:10;99597.59;;;1.63;54.05
46506;BME280;32220;49.808;9.968;2023-04-05T00:05:38;99594.09;;;1.64;53.20
46506;BME280;32220;49.808;9.968;2023-04-05T00:08:06;99576.00;;;1.52;52.84
46506;BME280;32220;49.808;9.968;2023-04-05T00:10:38;99570.00;;;1.47;53.29
46506;BME280;32220;49.808;9.968;2023-04-05T00:13:06;99509.56;;;1.15;53.65
46506;BME280;32220;49.808;9.968;2023-04-05T00:15:34;99564.66;;;1.55;56.37
46506;BME280;32220;49.808;9.968;2023-04-05T00:18:01;99571.63;;;1.54;55.27
46506;BME280;32220;49.808;9.968;2023-04-05T00:20:31;99542.25;;;1.40;56.64
46506;BME280;32220;49.808;9.968;2023-04-05T00:22:58;99558.63;;;1.50;56.66
46506;BME280;32220;49.808;9.968;2023-04-05T00:25:26;99527.63;;;1.30;55.87
46506;BME280;32220;49.808;9.968;2023-04-05T00:27:54;99562.19;;;1.46;55.57
46506;BME280;32220;49.808;9.968;2023-04-05T00:30:22;99561.34;;;1.45;55.30
46506;BME280;32220;49.808;9.968;2023-04-05T00:32:50;99544.88;;;1.38;56.05
46506;BME280;32220;49.808;9.968;2023-04-05T00:35:19;99553.69;;;1.33;55.62
46506;BME280;32220;49.808;9.968;2023-04-05T00:37:48;99558.00;;;1.34;55.12
46506;BME280;32220;49.808;9.968;2023-04-05T00:40:16;99530.41;;;1.18;54.60
46506;BME280;32220;49.808;9.968;2023-04-05T00:42:43;99556.34;;;1.27;54.28
46506;BME280;32220;49.808;9.968;2023-04-05T00:45:11;99543.44;;;1.18;54.22
46506;BME280;32220;49.808;9.968;2023-04-05T00:47:40;99556.56;;;1.12;54.02
46506;BME280;32220;49.808;9.968;2023-04-05T00:50:09;99557.41;;;1.12;53.96
46506;BME280;32220;49.808;9.968;2023-04-05T00:52:37;99525.56;;;0.90;53.95
46506;BME280;32220;49.808;9.968;2023-04-05T00:55:09;99552.34;;;1.01;53.97
46506;BME280;32220;49.808;9.968;2023-04-05T00:57:37;99546.34;;;0.96;54.12
46506;BME280;32220;49.808;9.968;2023-04-05T01:00:06;99539.44;;;0.92;55.04
46506;BME280;32220;49.808;9.968;2023-04-05T01:02:41;99523.94;;;0.82;54.80
46506;BME280;32220;49.808;9.968;2023-04-05T01:05:20;99541.22;;;0.87;55.08
46506;BME280;32220;49.808;9.968;2023-04-05T01:07:57;99536.09;;;0.81;55.18
46506;BME280;32220;49.808;9.968;2023-04-05T01:10:34;99522.25;;;0.76;55.34
46506;BME280;32220;49.808;9.968;2023-04-05T01:13:03;99526.53;;;0.82;56.13
46506;BME280;32220;49.808;9.968;2023-04-05T01:15:31;99515.31;;;0.75;56.06
46506;BME280;32220;49.808;9.968;2023-04-05T01:17:58;99517.88;;;0.80;56.80
46506;BME280;32220;49.808;9.968;2023-04-05T01:20:32;99509.31;;;0.70;57.97
46506;BME280;32220;49.808;9.968;2023-04-05T01:23:27;99506.56;;;0.79;59.34
46506;BME280;32220;49.808;9.968;2023-04-05T01:32:23;99515.41;;;0.67;56.82
46506;BME280;32220;49.808;9.968;2023-04-05T01:35:02;99491.34;;;0.49;56.82
46506;BME280;32220;49.808;9.968;2023-04-05T01:37:33;99506.97;;;0.49;56.64
46506;BME280;32220;49.808;9.968;2023-04-05T01:40:01;99531.19;;;0.57;56.28
46506;BME280;32220;49.808;9.968;2023-04-05T01:42:31;99490.63;;;0.36;56.32
46506;BME280;32220;49.808;9.968;2023-04-05T01:44:59;99524.31;;;0.50;55.99
46506;BME280;32220;49.808;9.968;2023-04-05T01:47:28;99507.06;;;0.40;55.98
46506;BME280;32220;49.808;9.968;2023-04-05T01:49:56;99495.88;;;0.28;56.03
46506;BME280;32220;49.808;9.968;2023-04-05T01:52:25;99520.13;;;0.37;56.00
46506;BME280;32220;49.808;9.968;2023-04-05T01:54:53;99521.91;;;0.31;55.69
46506;BME280;32220;49.808;9.968;2023-04-05T01:57:20;99456.38;;;-0.12;55.67
46506;BME280;32220;49.808;9.968;2023-04-05T01:59:48;99515.94;;;0.23;55.53
46506;BME280;32220;49.808;9.968;2023-04-05T02:02:16;99507.28;;;0.18;56.38
46506;BME280;32220;49.808;9.968;2023-04-05T02:04:45;99510.75;;;0.19;56.23
46506;BME280;32220;49.808;9.968;2023-04-05T02:07:12;99505.59;;;0.14;55.99
46506;BME280;32220;49.808;9.968;2023-04-05T02:09:40;99515.13;;;0.15;56.19
46506;BME280;32220;49.808;9.968;2023-04-05T02:12:08;99515.13;;;0.15;56.39
46506;BME280;32220;49.808;9.968;2023-04-05T02:14:37;99509.13;;;0.10;56.45
46506;BME280;32220;49.808;9.968;2023-04-05T02:17:06;99497.09;;;0.00;56.57
46506;BME280;32220;49.808;9.968;2023-04-05T02:19:34;99509.13;;;0.10;56.82
46506;BME280;32220;49.808;9.968;2023-04-05T02:22:07;99501.31;;;0.09;57.60
46506;BME280;32220;49.808;9.968;2023-04-05T02:24:35;99487.56;;;-0.04;57.27
46506;BME280;32220;49.808;9.968;2023-04-05T02:27:04;99502.22;;;0.06;57.40
46506;BME280;32220;49.808;9.968;2023-04-05T02:29:32;99507.41;;;0.06;57.62
46506;BME280;32220;49.808;9.968;2023-04-05T02:32:00;99475.41;;;-0.05;58.51
46506;BME280;32220;49.808;9.968;2023-04-05T02:34:28;99498.75;;;0.06;58.27
46506;BME280;32220;49.808;9.968;2023-04-05T02:36:58;99475.44;;;-0.08;58.68
46506;BME280;32220;49.808;9.968;2023-04-05T02:39:28;99492.66;;;0.05;59.15
46506;BME280;32220;49.808;9.968;2023-04-05T02:41:56;99490.06;;;0.05;59.13
46506;BME280;32220;49.808;9.968;2023-04-05T02:44:24;99492.66;;;0.05;58.81
46506;BME280;32220;49.808;9.968;2023-04-05T02:46:53;99493.53;;;0.04;58.44
46506;BME280;32220;49.808;9.968;2023-04-05T02:49:27;99494.44;;;0.02;58.36
46506;BME280;32220;49.808;9.968;2023-04-05T02:51:57;99485.81;;;-0.01;58.65
46506;BME280;32220;49.808;9.968;2023-04-05T02:54:25;99492.69;;;0.00;58.44
46506;BME280;32220;49.808;9.968;2023-04-05T02:57:00;99478.94;;;-0.11;58.65
46506;BME280;32220;49.808;9.968;2023-04-05T02:59:36;99475.41;;;-0.05;59.78
46506;BME280;32220;49.808;9.968;2023-04-05T03:02:05;99480.56;;;0.01;60.11
46506;BME280;32220;49.808;9.968;2023-04-05T03:04:34;99478.78;;;0.03;59.92
46506;BME280;32220;49.808;9.968;2023-04-05T03:07:03;99483.16;;;0.01;59.91
46506;BME280;32220;49.808;9.968;2023-04-05T03:09:35;99463.31;;;-0.12;59.00
46506;BME280;32220;49.808;9.968;2023-04-05T03:12:08;99483.22;;;-0.02;58.62
46506;BME280;32220;49.808;9.968;2023-04-05T03:14:40;99466.84;;;-0.15;58.81
46506;BME280;32220;49.808;9.968;2023-04-05T03:17:11;99485.81;;;-0.02;58.98
46506;BME280;32220;49.808;9.968;2023-04-05T03:19:42;99468.50;;;-0.09;60.45
46506;BME280;32220;49.808;9.968;2023-04-05T03:22:21;99476.28;;;-0.03;61.62
46506;BME280;32220;49.808;9.968;2023-04-05T03:24:48;99480.59;;;-0.02;60.95
46506;BME280;32220;49.808;9.968;2023-04-05T03:27:20;99459.06;;;-0.18;60.48
46506;BME280;32220;49.808;9.968;2023-04-05T03:30:00;99486.69;;;-0.03;60.00
46506;BME280;32220;49.808;9.968;2023-04-05T03:32:30;99478.88;;;-0.02;61.15
46506;BME280;32220;49.808;9.968;2023-04-05T03:35:06;99482.34;;;-0.01;61.08
46506;BME280;32220;49.808;9.968;2023-04-05T03:37:34;99483.25;;;-0.08;60.41
46506;BME280;32220;49.808;9.968;2023-04-05T03:40:07;99464.25;;;-0.16;60.10
46506;BME280;32220;49.808;9.968;2023-04-05T03:42:37;99475.50;;;-0.13;60.33
46506;BME280;32220;49.808;9.968;2023-04-05T03:45:07;99485.84;;;-0.05;60.94
46506;BME280;32220;49.808;9.968;2023-04-05T03:47:34;99486.72;;;-0.09;60.64
46506;BME280;32220;49.808;9.968;2023-04-05T03:50:06;99496.28;;;-0.08;61.02
46506;BME280;32220;49.808;9.968;2023-04-05T03:52:34;99495.41;;;-0.10;61.18
46506;BME280;32220;49.808;9.968;2023-04-05T03:55:05;99497.16;;;-0.12;61.43
46506;BME280;32220;49.808;9.968;2023-04-05T03:57:37;99465.22;;;-0.26;62.12
46506;BME280;32220;49.808;9.968;2023-04-05T04:00:19;99462.63;;;-0.26;62.06
46506;BME280;32220;49.808;9.968;2023-04-05T04:03:04;99486.81;;;-0.15;61.81
46506;BME280;32220;49.808;9.968;2023-04-05T04:05:33;99488.56;;;-0.17;61.58
46506;BME280;32220;49.808;9.968;2023-04-05T04:08:06;99472.97;;;-0.23;61.83
46506;BME280;32220;49.808;9.968;2023-04-05T04:10:35;99483.38;;;-0.20;62.04
46506;BME280;32220;49.808;9.968;2023-04-05T04:13:12;99466.03;;;-0.21;62.82
46506;BME280;32220;49.808;9.968;2023-04-05T04:15:41;99474.72;;;-0.22;63.16
46506;BME280;32220;49.808;9.968;2023-04-05T04:18:34;99476.44;;;-0.21;62.83
46506;BME280;32220;49.808;9.968;2023-04-05T04:21:37;99463.53;;;-0.32;62.67
46506;BME280;32220;49.808;9.968;2023-04-05T04:24:20;99482.56;;;-0.25;62.59
46506;BME280;32220;49.808;9.968;2023-04-05T04:27:21;99483.47;;;-0.29;62.14
46506;BME280;32220;49.808;9.968;2023-04-05T04:30:11;99485.22;;;-0.31;61.80
46506;BME280;32220;49.808;9.968;2023-04-05T04:32:58;99483.50;;;-0.36;62.25
46506;BME280;32220;49.808;9.968;2023-04-05T04:36:06;99481.78;;;-0.37;62.67
46506;BME280;32220;49.808;9.968;2023-04-05T04:38:54;99477.47;;;-0.38;63.42
46506;BME280;32220;49.808;9.968;2023-04-05T04:41:54;99466.22;;;-0.40;63.55
46506;BME280;32220;49.808;9.968;2023-04-05T04:44:45;99470.56;;;-0.42;63.62
46506;BME280;32220;49.808;9.968;2023-04-05T04:47:15;99472.31;;;-0.42;63.05
46506;BME280;32220;49.808;9.968;2023-04-05T04:50:05;99470.56;;;-0.43;62.98
46506;BME280;32220;49.808;9.968;2023-04-05T04:52:34;99469.78;;;-0.50;63.20
46506;BME280;32220;49.808;9.968;2023-04-05T04:55:02;99470.56;;;-0.45;63.23
46506;BME280;32220;49.808;9.968;2023-04-05T04:57:30;99467.97;;;-0.45;63.76
46506;BME280;32220;49.808;9.968;2023-04-05T04:59:58;99452.47;;;-0.57;63.48
46506;BME280;32220;49.808;9.968;2023-04-05T05:02:28;99475.75;;;-0.42;63.72
46506;BME280;32220;49.808;9.968;2023-04-05T05:04:56;99466.31;;;-0.52;63.29
46506;BME280;32220;49.808;9.968;2023-04-05T05:07:24;99478.38;;;-0.45;62.78
46506;BME280;32220;49.808;9.968;2023-04-05T05:09:51;99487.03;;;-0.40;62.26
46506;BME280;32220;49.808;9.968;2023-04-05T05:12:20;99492.25;;;-0.43;62.16
46506;BME280;32220;49.808;9.968;2023-04-05T05:14:48;99497.44;;;-0.38;62.06
46506;BME280;32220;49.808;9.968;2023-04-05T05:17:16;99481.94;;;-0.52;61.56
46506;BME280;32220;49.808;9.968;2023-04-05T05:19:45;99502.59;;;-0.37;61.57
46506;BME280;32220;49.808;9.968;2023-04-05T05:22:13;99492.25;;;-0.46;61.36
46506;BME280;32220;49.808;9.968;2023-04-05T05:24:42;99507.75;;;-0.30;62.40
46506;BME280;32220;49.808;9.968;2023-04-05T05:27:09;99495.59;;;-0.28;63.35
46506;BME280;32220;49.808;9.968;2023-04-05T05:29:37;99498.19;;;-0.27;63.44
46506;BME280;32220;49.808;9.968;2023-04-05T05:32:05;99481.66;;;-0.23;65.28
46506;BME280;32220;49.808;9.968;2023-04-05T05:34:36;99484.13;;;-0.09;65.62
46506;BME280;32220;49.808;9.968;2023-04-05T05:37:06;99489.28;;;-0.02;65.92
46506;BME280;32220;49.808;9.968;2023-04-05T05:39:34;99474.53;;;-0.04;64.70
46506;BME280;32220;49.808;9.968;2023-04-05T05:42:02;99476.16;;;0.06;64.05
46506;BME280;32220;49.808;9.968;2023-04-05T05:44:30;99491.66;;;0.20;64.17
46506;BME280;32220;49.808;9.968;2023-04-05T05:46:58;99489.81;;;0.28;64.01
46506;BME280;32220;49.808;9.968;2023-04-05T05:49:26;99488.81;;;0.38;64.42
46506;BME280;32220;49.808;9.968;2023-04-05T05:51:54;99491.28;;;0.52;63.90
46506;BME280;32220;49.808;9.968;2023-04-05T05:54:24;99488.53;;;0.64;63.51
46506;BME280;32220;49.808;9.968;2023-04-05T05:56:52;99480.63;;;0.70;63.61
46506;BME280;32220;49.808;9.968;2023-04-05T05:59:20;99486.53;;;0.84;63.44
46506;BME280;32220;49.808;9.968;2023-04-05T06:01:48;99492.50;;;0.92;62.93
46506;BME280;32220;49.808;9.968;2023-04-05T06:04:16;99490.63;;;1.02;62.47
46506;BME280;32220;49.808;9.968;2023-04-05T06:06:44;99480.13;;;1.06;63.39
46506;BME280;32220;49.808;9.968;2023-04-05T06:09:13;99479.97;;;1.19;63.08
46506;BME280;32220;49.808;9.968;2023-04-05T06:11:43;99497.03;;;1.38;62.38
46506;BME280;32220;49.808;9.968;2023-04-05T06:14:11;99492.47;;;1.54;61.92
46506;BME280;32220;49.808;9.968;2023-04-05T06:16:39;99497.53;;;1.61;61.95
46506;BME280;32220;49.808;9.968;2023-04-05T06:19:06;99499.25;;;1.64;61.54
46506;BME280;32220;49.808;9.968;2023-04-05T06:21:34;99498.34;;;1.66;61.87
46506;BME280;32220;49.808;9.968;2023-04-05T06:24:02;99474.16;;;1.55;61.37
46506;BME280;32220;49.808;9.968;2023-04-05T06:26:30;99489.50;;;1.73;60.95
46506;BME280;32220;49.808;9.968;2023-04-05T06:28:59;99485.91;;;1.80;61.40
46506;BME280;32220;49.808;9.968;2023-04-05T06:31:30;99478.81;;;1.89;61.77
46506;BME280;32220;49.808;9.968;2023-04-05T06:33:58;99476.06;;;1.98;61.92
46506;BME280;32220;49.808;9.968;2023-04-05T06:36:29;99500.81;;;2.23;61.13
46506;BME280;32220;49.808;9.968;2023-04-05T06:38:57;99508.28;;;2.44;60.51
46506;BME280;32220;49.808;9.968;2023-04-05T06:41:24;99511.47;;;2.59;60.36
46506;BME280;32220;49.808;9.968;2023-04-05T06:43:53;99504.25;;;2.71;60.53
46506;BME280;32220;49.808;9.968;2023-04-05T06:46:23;99499.75;;;2.78;59.67
46506;BME280;32220;49.808;9.968;2023-04-05T06:48:52;99518.47;;;2.98;59.35
46506;BME280;32220;49.808;9.968;2023-04-05T06:51:19;99520.94;;;3.06;59.10
46506;BME280;32220;49.808;9.968;2023-04-05T06:53:47;99528.34;;;3.25;57.34
46506;BME280;32220;49.808;9.968;2023-04-05T06:56:15;99515.88;;;3.37;56.98
46506;BME280;32220;49.808;9.968;2023-04-05T06:58:43;99536.81;;;3.74;56.51
46506;BME280;32220;49.808;9.968;2023-04-05T07:01:11;99529.34;;;3.94;55.52
46506;BME280;32220;49.808;9.968;2023-04-05T07:03:40;99553.66;;;4.33;54.68
46506;BME280;32220;49.808;9.968;2023-04-05T07:06:07;99515.91;;;4.40;53.82
46506;BME280;32220;49.808;9.968;2023-04-05T07:08:36;99557.13;;;4.98;52.70
46506;BME280;32220;49.808;9.968;2023-04-05T07:11:04;99561.63;;;5.24;51.65
46506;BME280;32220;49.808;9.968;2023-04-05T07:13:32;99556.88;;;5.65;51.63
46506;BME280;32220;49.808;9.968;2023-04-05T07:16:01;99553.34;;;6.45;50.67
46506;BME280;32220;49.808;9.968;2023-04-05T07:18:29;99573.06;;;7.30;48.06
46506;BME280;32220;49.808;9.968;2023-04-05T07:20:59;99583.94;;;8.11;46.91
46506;BME280;32220;49.808;9.968;2023-04-05T07:23:30;99588.91;;;9.01;44.06
46506;BME280;32220;49.808;9.968;2023-04-05T07:26:00;99591.50;;;9.96;43.27
46506;BME280;32220;49.808;9.968;2023-04-05T07:28:30;99609.84;;;10.54;40.98
46506;BME280;32220;49.808;9.968;2023-04-05T07:30:58;99594.25;;;10.83;42.54
46506;BME280;32220;49.808;9.968;2023-04-05T07:33:26;99585.16;;;10.71;41.97
46506;BME280;32220;49.808;9.968;2023-04-05T07:35:54;99606.13;;;10.75;40.52
46506;BME280;32220;49.808;9.968;2023-04-05T07:38:25;99603.25;;;10.63;39.79
46506;BME280;32220;49.808;9.968;2023-04-05T07:40:54;99603.66;;;10.88;39.96
46506;BME280;32220;49.808;9.968;2023-04-05T07:43:21;99587.13;;;11.00;40.16
46506;BME280;32220;49.808;9.968;2023-04-05T07:45:50;99621.25;;;11.24;38.39
46506;BME280;32220;49.808;9.968;2023-04-05T07:48:19;99609.38;;;11.31;39.14
46506;BME280;32220;49.808;9.968;2023-04-05T07:50:47;99611.97;;;11.97;39.46
46506;BME280;32220;49.808;9.968;2023-04-05T07:53:18;99635.41;;;13.40;34.44
46506;BME280;32220;49.808;9.968;2023-04-05T07:55:48;99645.31;;;15.65;32.84
46506;BME280;32220;49.808;9.968;2023-04-05T07:58:16;99635.16;;;17.93;29.86
46506;BME280;32220;49.808;9.968;2023-04-05T08:00:43;99624.63;;;19.40;26.11
46506;BME280;32220;49.808;9.968;2023-04-05T08:03:11;99684.44;;;19.93;24.90
46506;BME280;32220;49.808;9.968;2023-04-05T08:05:39;99679.56;;;20.58;26.09
46506;BME280;32220;49.808;9.968;2023-04-05T08:08:07;99691.41;;;21.24;22.98
46506;BME280;32220;49.808;9.968;2023-04-05T08:10:37;99671.94;;;21.30;24.78
46506;BME280;32220;49.808;9.968;2023-04-05T08:13:07;99657.38;;;20.75;25.46
46506;BME280;32220;49.808;9.968;2023-04-05T08:15:35;99631.25;;;20.66;26.49
46506;BME280;32220;49.808;9.968;2023-04-05T08:18:02;99676.16;;;20.56;24.56
46506;BME280;32220;49.808;9.968;2023-04-05T08:20:30;99667.22;;;20.46;25.11
46506;BME280;32220;49.808;9.968;2023-04-05T08:23:03;99659.31;;;20.54;23.68
46506;BME280;32220;49.808;9.968;2023-04-05T08:25:32;99683.56;;;20.23;22.78
46506;BME280;32220;49.808;9.968;2023-04-05T08:27:59;99640.16;;;19.88;25.02
46506;BME280;32220;49.808;9.968;2023-04-05T08:30:29;99659.63;;;21.08;23.53
46506;BME280;32220;49.808;9.968;2023-04-05T08:32:56;99663.31;;;22.47;23.01
46506;BME280;32220;49.808;9.968;2023-04-05T08:35:24;99664.28;;;23.53;20.34
46506;BME280;32220;49.808;9.968;2023-04-05T08:37:52;99677.81;;;24.13;19.40
46506;BME280;32220;49.808;9.968;2023-04-05T08:40:20;99656.28;;;24.29;19.28
46506;BME280;32220;49.808;9.968;2023-04-05T08:42:51;99688.47;;;24.48;19.01
46506;BME280;32220;49.808;9.968;2023-04-05T08:45:24;99644.97;;;24.42;19.89
46506;BME280;32220;49.808;9.968;2023-04-05T08:47:54;99678.50;;;25.07;18.61
46506;BME280;32220;49.808;9.968;2023-04-05T08:50:22;99675.97;;;26.09;18.15
46506;BME280;32220;49.808;9.968;2023-04-05T08:52:50;99675.47;;;27.52;17.67
46506;BME280;32220;49.808;9.968;2023-04-05T08:55:17;99673.56;;;28.85;16.96
46506;BME280;32220;49.808;9.968;2023-04-05T08:57:48;99678.06;;;30.19;15.36
46506;BME280;32220;49.808;9.968;2023-04-05T09:00:17;99673.75;;;31.05;15.11
46506;BME280;32220;49.808;9.968;2023-04-05T09:02:47;99673.41;;;31.81;14.41
46506;BME280;32220;49.808;9.968;2023-04-05T09:05:19;99687.28;;;32.19;13.56
46506;BME280;32220;49.808;9.968;2023-04-05T09:07:47;99669.78;;;32.71;13.38
46506;BME280;32220;49.808;9.968;2023-04-05T09:10:18;99669.41;;;33.37;13.38
46506;BME280;32220;49.808;9.968;2023-04-05T09:12:46;99664.22;;;33.97;12.76
46506;BME280;32220;49.808;9.968;2023-04-05T09:15:15;99639.09;;;34.12;13.01
46506;BME280;32220;49.808;9.968;2023-04-05T09:17:44;99653.88;;;34.84;12.81
46506;BME280;32220;49.808;9.968;2023-04-05T09:20:12;99626.88;;;35.04;12.13
46506;BME280;32220;49.808;9.968;2023-04-05T09:22:46;99646.13;;;35.46;12.29
46506;BME280;32220;49.808;9.968;2023-04-05T09:25:32;99647.44;;;35.02;11.79
46506;BME280;32220;49.808;9.968;2023-04-05T09:28:00;99642.25;;;33.47;13.17
46506;BME280;32220;49.808;9.968;2023-04-05T09:30:29;99616.84;;;32.13;13.91
46506;BME280;32220;49.808;9.968;2023-04-05T09:32:58;99627.34;;;32.29;13.60
46506;BME280;32220;49.808;9.968;2023-04-05T09:35:28;99610.44;;;32.77;13.39
46506;BME280;32220;49.808;9.968;2023-04-05T09:38:00;99617.34;;;33.42;12.50
46506;BME280;32220;49.808;9.968;2023-04-05T09:40:42;99630.09;;;33.37;12.89
46506;BME280;32220;49.808;9.968;2023-04-05T09:43:13;99627.06;;;32.51;13.44
46506;BME280;32220;49.808;9.968;2023-04-05T09:45:42;99610.88;;;31.38;14.20
46506;BME280;32220;49.808;9.968;2023-04-05T09:48:11;99618.16;;;30.65;14.45
46506;BME280;32220;49.808;9.968;2023-04-05T09:50:39;99608.94;;;31.06;14.37
46506;BME280;32220;49.808;9.968;2023-04-05T09:53:10;99604.56;;;30.38;14.17
46506;BME280;32220;49.808;9.968;2023-04-05T09:55:41;99602.22;;;29.31;15.74
46506;BME280;32220;49.808;9.968;2023-04-05T09:58:17;99599.53;;;29.10;15.15
46506;BME280;32220;49.808;9.968;2023-04-05T10:00:48;99625.16;;;28.73;14.41
46506;BME280;32220;49.808;9.968;2023-04-05T10:03:18;99596.97;;;27.94;14.90
46506;BME280;32220;49.808;9.968;2023-04-05T10:05:46;99588.31;;;27.75;15.49
46506;BME280;32220;49.808;9.968;2023-04-05T10:08:23;99586.75;;;27.81;15.61
46506;BME280;32220;49.808;9.968;2023-04-05T10:10:51;99574.22;;;27.86;16.20
46506;BME280;32220;49.808;9.968;2023-04-05T10:13:21;99592.50;;;28.07;15.96
46506;BME280;32220;49.808;9.968;2023-04-05T10:15:53;99568.72;;;27.80;16.43
46506;BME280;32220;49.808;9.968;2023-04-05T10:18:24;99598.44;;;28.26;15.25
46506;BME280;32220;49.808;9.968;2023-04-05T10:20:57;99574.88;;;28.03;15.19
46506;BME280;32220;49.808;9.968;2023-04-05T10:23:30;99565.88;;;29.52;16.23
46506;BME280;32220;49.808;9.968;2023-04-05T10:26:03;99607.03;;;31.00;13.79
46506;BME280;32220;49.808;9.968;2023-04-05T10:28:36;99593.94;;;32.45;13.42
46506;BME280;32220;49.808;9.968;2023-04-05T10:31:10;99606.53;;;32.60;12.59
46506;BME280;32220;49.808;9.968;2023-04-05T10:33:40;99599.78;;;32.56;12.17
46506;BME280;32220;49.808;9.968;2023-04-05T10:36:16;99593.16;;;31.48;12.58
46506;BME280;32220;49.808;9.968;2023-04-05T10:39:04;99592.00;;;29.12;14.30
46506;BME280;32220;49.808;9.968;2023-04-05T10:41:43;99554.09;;;27.14;15.92
46506;BME280;32220;49.808;9.968;2023-04-05T10:44:14;99576.63;;;25.92;16.01
46506;BME280;32220;49.808;9.968;2023-04-05T10:46:44;99567.00;;;24.69;17.07
46506;BME280;32220;49.808;9.968;2023-04-05T10:49:21;99566.25;;;23.51;17.26
46506;BME280;32220;49.808;9.968;2023-04-05T10:51:49;99556.63;;;22.79;18.28
46506;BME280;32220;49.808;9.968;2023-04-05T10:54:19;99543.97;;;22.26;19.09
46506;BME280;32220;49.808;9.968;2023-04-05T10:56:47;99545.50;;;21.83;19.53
46506;BME280;32220;49.808;9.968;2023-04-05T10:59:16;99497.09;;;21.37;20.39
46506;BME280;32220;49.808;9.968;2023-04-05T11:01:45;99544.91;;;21.62;19.40
46506;BME280;32220;49.808;9.968;2023-04-05T11:04:14;99541.19;;;21.91;19.61
46506;BME280;32220;49.808;9.968;2023-04-05T11:06:43;99536.09;;;22.15;20.34
46506;BME280;32220;49.808;9.968;2023-04-05T11:09:15;99531.84;;;23.61;18.94
46506;BME280;32220;49.808;9.968;2023-04-05T11:11:46;99529.28;;;25.48;18.63
46506;BME280;32220;49.808;9.968;2023-04-05T11:14:20;99538.03;;;27.57;17.11
46506;BME280;32220;49.808;9.968;2023-04-05T11:16:51;99535.59;;;29.19;14.53
46506;BME280;32220;49.808;9.968;2023-04-05T11:19:48;99554.22;;;30.86;13.86
46506;BME280;32220;49.808;9.968;2023-04-05T11:22:24;99537.94;;;32.91;13.17
46506;BME280;32220;49.808;9.968;2023-04-05T11:24:54;99565.84;;;34.36;12.04
46506;BME280;32220;49.808;9.968;2023-04-05T11:27:29;99569.31;;;35.26;11.00
46506;BME280;32220;49.808;9.968;2023-04-05T11:29:58;99556.88;;;35.58;11.68
46506;BME280;32220;49.808;9.968;2023-04-05T11:32:37;99557.69;;;35.94;10.99
46506;BME280;32220;49.808;9.968;2023-04-05T11:35:11;99554.69;;;35.14;11.98
46506;BME280;32220;49.808;9.968;2023-04-05T11:37:52;99549.88;;;34.08;11.98
46506;BME280;32220;49.808;9.968;2023-04-05T11:40:26;99553.22;;;33.37;12.26
46506;BME280;32220;49.808;9.968;2023-04-05T11:43:01;99537.88;;;34.02;11.91
46506;BME280;32220;49.808;9.968;2023-04-05T11:45:29;99545.13;;;34.75;11.34
46506;BME280;32220;49.808;9.968;2023-04-05T11:47:59;99539.72;;;35.68;10.88
46506;BME280;32220;49.808;9.968;2023-04-05T11:50:27;99536.41;;;36.46;11.13
46506;BME280;32220;49.808;9.968;2023-04-05T11:53:12;99546.56;;;37.19;9.47
46506;BME280;32220;49.808;9.968;2023-04-05T11:55:42;99543.66;;;37.48;10.18
46506;BME280;32220;49.808;9.968;2023-04-05T11:58:12;99533.72;;;38.29;10.15
46506;BME280;32220;49.808;9.968;2023-04-05T12:00:45;99539.53;;;39.13;9.68
46506;BME280;32220;49.808;9.968;2023-04-05T12:03:14;99539.28;;;39.57;8.67
46506;BME280;32220;49.808;9.968;2023-04-05T12:05:47;99519.25;;;39.44;8.88
46506;BME280;32220;49.808;9.968;2023-04-05T12:08:16;99536.34;;;39.31;8.79
46506;BME280;32220;49.808;9.968;2023-04-05T12:10:44;99524.56;;;37.63;9.64
46506;BME280;32220;49.808;9.968;2023-04-05T12:13:26;99516.66;;;36.83;10.67
46506;BME280;32220;49.808;9.968;2023-04-05T12:15:56;99512.50;;;34.78;11.17
46506;BME280;32220;49.808;9.968;2023-04-05T12:18:27;99513.56;;;32.52;11.97
46506;BME280;32220;49.808;9.968;2023-04-05T12:20:57;99500.72;;;32.45;12.72
46506;BME280;32220;49.808;9.968;2023-04-05T12:23:25;99486.31;;;33.49;11.49
46506;BME280;32220;49.808;9.968;2023-04-05T12:25:54;99485.75;;;32.03;12.14
46506;BME280;32220;49.808;9.968;2023-04-05T12:28:24;99501.44;;;30.05;12.58
46506;BME280;32220;49.808;9.968;2023-04-05T12:30:53;99496.84;;;28.32;13.85
46506;BME280;32220;49.808;9.968;2023-04-05T12:33:26;99481.00;;;26.81;14.50
46506;BME280;32220;49.808;9.968;2023-04-05T12:35:54;99478.69;;;26.02;15.38
46506;BME280;32220;49.808;9.968;2023-04-05T12:38:24;99458.84;;;26.24;16.20
46506;BME280;32220;49.808;9.968;2023-04-05T12:40:53;99464.13;;;28.10;15.55
46506;BME280;32220;49.808;9.968;2023-04-05T12:43:21;99466.69;;;29.92;13.44
46506;BME280;32220;49.808;9.968;2023-04-05T12:45:53;99461.41;;;31.11;13.00
46506;BME280;32220;49.808;9.968;2023-04-05T12:48:22;99460.63;;;29.90;13.52
46506;BME280;32220;49.808;9.968;2023-04-05T12:50:52;99477.72;;;28.95;13.13
46506;BME280;32220;49.808;9.968;2023-04-05T12:53:21;99458.53;;;27.17;14.19
46506;BME280;32220;49.808;9.968;2023-04-05T12:55:51;99469.84;;;25.77;14.97
46506;BME280;32220;49.808;9.968;2023-04-05T12:58:20;99447.75;;;24.86;14.99
46506;BME280;32220;49.808;9.968;2023-04-05T13:00:48;99457.03;;;25.63;15.67
46506;BME280;32220;49.808;9.968;2023-04-05T13:03:20;99450.34;;;24.71;15.92
46506;BME280;32220;49.808;9.968;2023-04-05T13:05:48;99448.91;;;23.78;16.27
46506;BME280;32220;49.808;9.968;2023-04-05T13:08:16;99426.97;;;24.62;16.09
46506;BME280;32220;49.808;9.968;2023-04-05T13:10:45;99426.69;;;24.32;16.10
46506;BME280;32220;49.808;9.968;2023-04-05T13:13:13;99445.22;;;23.45;16.04
46506;BME280;32220;49.808;9.968;2023-04-05T13:15:41;99423.41;;;24.69;17.35
46506;BME280;32220;49.808;9.968;2023-04-05T13:18:08;99396.38;;;26.47;16.56
46506;BME280;32220;49.808;9.968;2023-04-05T13:20:41;99430.88;;;28.36;14.02
46506;BME280;32220;49.808;9.968;2023-04-05T13:23:09;99420.53;;;29.43;14.10
46506;BME280;32220;49.808;9.968;2023-04-05T13:25:38;99425.69;;;29.66;12.91
46506;BME280;32220;49.808;9.968;2023-04-05T13:28:06;99435.09;;;30.24;12.71
46506;BME280;32220;49.808;9.968;2023-04-05T13:30:34;99436.38;;;30.28;12.18